sensor_id;sensor_type;location;lat;lon;timestamp;P1;durP1;ratioP1;P2;durP2;ratioP2
6937;SDS011;40040;42.706;23.372;2023-04-15T00:00:36;15.45;;;8.98;;
6937;SDS011;40040;42.706;23.372;2023-04-15T00:03:03;17.35;;;9.77;;
6937;SDS011;40040;42.706;23.372;2023-04-15T00:05:31;13.23;;;7.68;;
6937;SDS011;40040;42.706;23.372;2023-04-15T00:07:58;8.70;;;5.97;;
6937;SDS011;40040;42.706;23.372;2023-04-15T00:10:25;9.48;;;6.05;;
6937;SDS011;40040;42.706;23.372;2023-04-15T00:12:52;9.43;;;6.35;;
6937;SDS011;40040;42.706;23.372;2023-04-15T00:15:19;10.07;;;6.15;;
6937;SDS011;40040;42.706;23.372;2023-04-15T00:17:48;7.78;;;6.43;;
6937;SDS011;40040;42.706;23.372;2023-04-15T00:20:16;11.13;;;6.87;;
6937;SDS011;40040;42.706;23.372;2023-04-15T00:22:43;12.95;;;6.25;;
6937;SDS011;40040;42.706;23.372;2023-04-15T00:25:10;11.80;;;6.95;;
6937;SDS011;40040;42.706;23.372;2023-04-15T00:27:37;13.07;;;6.85;;
6937;SDS011;40040;42.706;23.372;2023-04-15T00:30:05;9.85;;;6.30;;
6937;SDS011;40040;42.706;23.372;2023-04-15T00:32:32;10.38;;;5.97;;
6937;SDS011;40040;42.706;23.372;2023-04-15T00:35:00;10.37;;;7.30;;
6937;SDS011;40040;42.706;23.372;2023-04-15T00:37:28;13.13;;;9.53;;
6937;SDS011;40040;42.706;23.372;2023-04-15T00:39:55;10.75;;;6.38;;
6937;SDS011;40040;42.706;23.372;2023-04-15T00:42:21;9.60;;;6.23;;
6937;SDS011;40040;42.706;23.372;2023-04-15T00:44:50;9.20;;;6.10;;
6937;SDS011;40040;42.706;23.372;2023-04-15T00:47:17;9.97;;;6.00;;
6937;SDS011;40040;42.706;23.372;2023-04-15T00:49:45;7.23;;;5.70;;
6937;SDS011;40040;42.706;23.372;2023-04-15T00:52:13;9.27;;;6.13;;
6937;SDS011;40040;42.706;23.372;2023-04-15T00:54:40;8.57;;;6.00;;
6937;SDS011;40040;42.706;23.372;2023-04-15T00:57:07;7.13;;;5.60;;
6937;SDS011;40040;42.706;23.372;2023-04-15T00:59:34;11.87;;;7.00;;
6937;SDS011;40040;42.706;23.372;2023-04-15T01:02:01;10.90;;;6.95;;
6937;SDS011;40040;42.706;23.372;2023-04-15T01:04:28;11.18;;;6.53;;
6937;SDS011;40040;42.706;23.372;2023-04-15T01:06:56;12.82;;;6.90;;
6937;SDS011;40040;42.706;23.372;2023-04-15T01:09:24;12.07;;;7.60;;
6937;SDS011;40040;42.706;23.372;2023-04-15T01:11:52;10.57;;;7.03;;
6937;SDS011;40040;42.706;23.372;2023-04-15T01:14:19;12.10;;;7.23;;
6937;SDS011;40040;42.706;23.372;2023-04-15T01:16:46;13.77;;;7.45;;
6937;SDS011;40040;42.706;23.372;2023-04-15T01:19:13;11.13;;;8.25;;
6937;SDS011;40040;42.706;23.372;2023-04-15T01:21:42;12.13;;;7.40;;
6937;SDS011;40040;42.706;23.372;2023-04-15T01:24:10;13.43;;;8.00;;
6937;SDS011;40040;42.706;23.372;2023-04-15T01:26:38;12.97;;;7.50;;
6937;SDS011;40040;42.706;23.372;2023-04-15T01:29:06;14.05;;;8.40;;
6937;SDS011;40040;42.706;23.372;2023-04-15T01:31:33;14.93;;;8.90;;
6937;SDS011;40040;42.706;23.372;2023-04-15T01:34:00;17.05;;;8.57;;
6937;SDS011;40040;42.706;23.372;2023-04-15T01:36:27;14.27;;;7.60;;
6937;SDS011;40040;42.706;23.372;2023-04-15T01:38:54;12.50;;;8.27;;
6937;SDS011;40040;42.706;23.372;2023-04-15T01:41:24;15.60;;;8.45;;
6937;SDS011;40040;42.706;23.372;2023-04-15T01:43:52;23.38;;;10.65;;
6937;SDS011;40040;42.706;23.372;2023-04-15T01:46:19;14.83;;;8.83;;
6937;SDS011;40040;42.706;23.372;2023-04-15T01:48:46;14.30;;;8.00;;
6937;SDS011;40040;42.706;23.372;2023-04-15T01:51:13;11.77;;;7.47;;
6937;SDS011;40040;42.706;23.372;2023-04-15T01:53:40;10.87;;;7.03;;
6937;SDS011;40040;42.706;23.372;2023-04-15T01:56:07;27.30;;;16.10;;
6937;SDS011;40040;42.706;23.372;2023-04-15T01:58:34;9.10;;;5.80;;
6937;SDS011;40040;42.706;23.372;2023-04-15T02:01:02;8.47;;;5.40;;
6937;SDS011;40040;42.706;23.372;2023-04-15T02:03:29;8.20;;;5.80;;
6937;SDS011;40040;42.706;23.372;2023-04-15T02:05:56;9.47;;;6.47;;
6937;SDS011;40040;42.706;23.372;2023-04-15T02:08:23;7.50;;;5.47;;
6937;SDS011;40040;42.706;23.372;2023-04-15T02:10:50;7.33;;;5.30;;
6937;SDS011;40040;42.706;23.372;2023-04-15T02:13:17;10.10;;;5.87;;
6937;SDS011;40040;42.706;23.372;2023-04-15T02:15:46;11.43;;;6.00;;
6937;SDS011;40040;42.706;23.372;2023-04-15T02:18:15;10.40;;;6.63;;
6937;SDS011;40040;42.706;23.372;2023-04-15T02:20:42;7.73;;;6.50;;
6937;SDS011;40040;42.706;23.372;2023-04-15T02:23:08;10.37;;;6.17;;
6937;SDS011;40040;42.706;23.372;2023-04-15T02:25:35;8.27;;;5.30;;
6937;SDS011;40040;42.706;23.372;2023-04-15T02:28:03;10.33;;;5.90;;
6937;SDS011;40040;42.706;23.372;2023-04-15T02:30:30;7.13;;;5.70;;
6937;SDS011;40040;42.706;23.372;2023-04-15T02:32:58;8.27;;;5.47;;
6937;SDS011;40040;42.706;23.372;2023-04-15T02:35:27;6.60;;;4.83;;
6937;SDS011;40040;42.706;23.372;2023-04-15T02:37:54;13.33;;;8.50;;
6937;SDS011;40040;42.706;23.372;2023-04-15T02:40:21;16.50;;;11.60;;
6937;SDS011;40040;42.706;23.372;2023-04-15T02:42:47;10.20;;;7.40;;
6937;SDS011;40040;42.706;23.372;2023-04-15T02:45:15;17.77;;;9.33;;
6937;SDS011;40040;42.706;23.372;2023-04-15T02:47:43;12.13;;;7.30;;
6937;SDS011;40040;42.706;23.372;2023-04-15T02:50:11;9.97;;;6.13;;
6937;SDS011;40040;42.706;23.372;2023-04-15T02:52:40;7.60;;;5.20;;
6937;SDS011;40040;42.706;23.372;2023-04-15T02:55:08;9.07;;;5.27;;
6937;SDS011;40040;42.706;23.372;2023-04-15T02:57:35;6.30;;;4.70;;
6937;SDS011;40040;42.706;23.372;2023-04-15T03:00:03;7.70;;;5.23;;
6937;SDS011;40040;42.706;23.372;2023-04-15T03:02:33;9.30;;;4.97;;
6937;SDS011;40040;42.706;23.372;2023-04-15T03:05:01;7.00;;;4.87;;
6937;SDS011;40040;42.706;23.372;2023-04-15T03:07:28;6.93;;;5.17;;
6937;SDS011;40040;42.706;23.372;2023-04-15T03:09:57;7.37;;;5.03;;
6937;SDS011;40040;42.706;23.372;2023-04-15T03:12:24;6.37;;;4.33;;
6937;SDS011;40040;42.706;23.372;2023-04-15T03:14:50;8.70;;;4.80;;
6937;SDS011;40040;42.706;23.372;2023-04-15T03:17:17;6.93;;;4.70;;
6937;SDS011;40040;42.706;23.372;2023-04-15T03:19:44;7.60;;;5.50;;
6937;SDS011;40040;42.706;23.372;2023-04-15T03:22:11;7.97;;;5.30;;
6937;SDS011;40040;42.706;23.372;2023-04-15T03:24:37;8.57;;;5.00;;
6937;SDS011;40040;42.706;23.372;2023-04-15T03:27:06;22.70;;;10.67;;
6937;SDS011;40040;42.706;23.372;2023-04-15T03:29:33;5.93;;;4.60;;
6937;SDS011;40040;42.706;23.372;2023-04-15T03:32:00;4.47;;;4.07;;
6937;SDS011;40040;42.706;23.372;2023-04-15T03:34:27;8.03;;;4.47;;
6937;SDS011;40040;42.706;23.372;2023-04-15T03:36:54;5.07;;;3.70;;
6937;SDS011;40040;42.706;23.372;2023-04-15T03:39:21;4.13;;;3.70;;
6937;SDS011;40040;42.706;23.372;2023-04-15T03:41:48;6.67;;;3.90;;
6937;SDS011;40040;42.706;23.372;2023-04-15T03:44:16;11.97;;;4.30;;
6937;SDS011;40040;42.706;23.372;2023-04-15T03:46:43;2.90;;;2.80;;
6937;SDS011;40040;42.706;23.372;2023-04-15T03:49:10;4.17;;;3.87;;
6937;SDS011;40040;42.706;23.372;2023-04-15T03:51:36;7.33;;;4.30;;
6937;SDS011;40040;42.706;23.372;2023-04-15T03:54:03;7.23;;;4.90;;
6937;SDS011;40040;42.706;23.372;2023-04-15T03:56:30;5.67;;;4.07;;
6937;SDS011;40040;42.706;23.372;2023-04-15T03:58:57;4.30;;;3.90;;
6937;SDS011;40040;42.706;23.372;2023-04-15T04:01:25;4.33;;;3.93;;
6937;SDS011;40040;42.706;23.372;2023-04-15T04:03:52;4.97;;;4.00;;
6937;SDS011;40040;42.706;23.372;2023-04-15T04:06:18;5.57;;;4.10;;
6937;SDS011;40040;42.706;23.372;2023-04-15T04:08:45;6.43;;;4.13;;
6937;SDS011;40040;42.706;23.372;2023-04-15T04:11:12;5.40;;;4.17;;
6937;SDS011;40040;42.706;23.372;2023-04-15T04:13:39;6.67;;;4.30;;
6937;SDS011;40040;42.706;23.372;2023-04-15T04:16:06;7.63;;;4.77;;
6937;SDS011;40040;42.706;23.372;2023-04-15T04:18:34;6.33;;;4.10;;
6937;SDS011;40040;42.706;23.372;2023-04-15T04:21:01;7.97;;;5.13;;
6937;SDS011;40040;42.706;23.372;2023-04-15T04:23:28;7.23;;;4.43;;
6937;SDS011;40040;42.706;23.372;2023-04-15T04:25:55;7.00;;;4.73;;
6937;SDS011;40040;42.706;23.372;2023-04-15T04:28:21;7.07;;;4.50;;
6937;SDS011;40040;42.706;23.372;2023-04-15T04:30:48;6.93;;;4.93;;
6937;SDS011;40040;42.706;23.372;2023-04-15T04:33:15;6.87;;;4.70;;
6937;SDS011;40040;42.706;23.372;2023-04-15T04:35:43;8.87;;;5.27;;
6937;SDS011;40040;42.706;23.372;2023-04-15T04:38:10;7.77;;;4.90;;
6937;SDS011;40040;42.706;23.372;2023-04-15T04:40:37;9.57;;;5.47;;
6937;SDS011;40040;42.706;23.372;2023-04-15T04:43:04;7.33;;;4.90;;
6937;SDS011;40040;42.706;23.372;2023-04-15T04:45:30;9.80;;;6.10;;
6937;SDS011;40040;42.706;23.372;2023-04-15T04:47:57;6.83;;;5.70;;
6937;SDS011;40040;42.706;23.372;2023-04-15T04:50:24;8.63;;;6.10;;
6937;SDS011;40040;42.706;23.372;2023-04-15T04:52:52;12.30;;;7.50;;
6937;SDS011;40040;42.706;23.372;2023-04-15T04:55:19;10.03;;;6.30;;
6937;SDS011;40040;42.706;23.372;2023-04-15T04:57:46;15.93;;;9.30;;
6937;SDS011;40040;42.706;23.372;2023-04-15T05:00:13;13.93;;;7.80;;
6937;SDS011;40040;42.706;23.372;2023-04-15T05:02:40;11.67;;;7.07;;
6937;SDS011;40040;42.706;23.372;2023-04-15T05:05:08;12.53;;;7.43;;
6937;SDS011;40040;42.706;23.372;2023-04-15T05:07:35;10.23;;;7.07;;
6937;SDS011;40040;42.706;23.372;2023-04-15T05:10:04;14.20;;;7.10;;
6937;SDS011;40040;42.706;23.372;2023-04-15T05:12:32;11.80;;;6.80;;
6937;SDS011;40040;42.706;23.372;2023-04-15T05:14:59;10.57;;;7.13;;
6937;SDS011;40040;42.706;23.372;2023-04-15T05:17:26;12.40;;;7.70;;
6937;SDS011;40040;42.706;23.372;2023-04-15T05:19:53;7.20;;;6.27;;
6937;SDS011;40040;42.706;23.372;2023-04-15T05:22:19;10.23;;;7.23;;
6937;SDS011;40040;42.706;23.372;2023-04-15T05:24:47;12.13;;;7.07;;
6937;SDS011;40040;42.706;23.372;2023-04-15T05:27:15;12.27;;;6.97;;
6937;SDS011;40040;42.706;23.372;2023-04-15T05:29:43;9.23;;;6.32;;
6937;SDS011;40040;42.706;23.372;2023-04-15T05:32:10;7.78;;;5.63;;
6937;SDS011;40040;42.706;23.372;2023-04-15T05:34:36;8.50;;;6.05;;
6937;SDS011;40040;42.706;23.372;2023-04-15T05:37:03;14.25;;;7.38;;
6937;SDS011;40040;42.706;23.372;2023-04-15T05:39:30;10.82;;;6.70;;
6937;SDS011;40040;42.706;23.372;2023-04-15T05:41:57;10.68;;;6.90;;
6937;SDS011;40040;42.706;23.372;2023-04-15T05:44:25;9.10;;;6.53;;
6937;SDS011;40040;42.706;23.372;2023-04-15T05:46:52;12.57;;;7.35;;
6937;SDS011;40040;42.706;23.372;2023-04-15T05:49:18;10.75;;;6.70;;
6937;SDS011;40040;42.706;23.372;2023-04-15T05:51:46;12.48;;;8.90;;
6937;SDS011;40040;42.706;23.372;2023-04-15T05:54:13;10.23;;;7.55;;
6937;SDS011;40040;42.706;23.372;2023-04-15T05:56:40;23.25;;;15.15;;
6937;SDS011;40040;42.706;23.372;2023-04-15T05:59:07;15.60;;;9.10;;
6937;SDS011;40040;42.706;23.372;2023-04-15T06:01:35;12.25;;;8.70;;
6937;SDS011;40040;42.706;23.372;2023-04-15T06:04:02;11.27;;;8.05;;
6937;SDS011;40040;42.706;23.372;2023-04-15T06:06:29;15.88;;;9.45;;
6937;SDS011;40040;42.706;23.372;2023-04-15T06:08:56;11.82;;;8.75;;
6937;SDS011;40040;42.706;23.372;2023-04-15T06:11:23;7.45;;;6.45;;
6937;SDS011;40040;42.706;23.372;2023-04-15T06:13:51;6.63;;;5.50;;
6937;SDS011;40040;42.706;23.372;2023-04-15T06:16:18;16.02;;;9.85;;
6937;SDS011;40040;42.706;23.372;2023-04-15T06:18:46;8.40;;;5.35;;
6937;SDS011;40040;42.706;23.372;2023-04-15T06:21:13;7.05;;;5.20;;
6937;SDS011;40040;42.706;23.372;2023-04-15T06:23:40;12.13;;;7.45;;
6937;SDS011;40040;42.706;23.372;2023-04-15T06:26:07;9.32;;;6.03;;
6937;SDS011;40040;42.706;23.372;2023-04-15T06:28:34;6.95;;;5.10;;
6937;SDS011;40040;42.706;23.372;2023-04-15T06:31:00;16.65;;;9.75;;
6937;SDS011;40040;42.706;23.372;2023-04-15T06:33:27;5.07;;;4.13;;
6937;SDS011;40040;42.706;23.372;2023-04-15T06:35:56;4.38;;;3.70;;
6937;SDS011;40040;42.706;23.372;2023-04-15T06:38:22;3.92;;;3.53;;
6937;SDS011;40040;42.706;23.372;2023-04-15T06:40:50;3.53;;;3.33;;
6937;SDS011;40040;42.706;23.372;2023-04-15T06:43:16;3.75;;;3.45;;
6937;SDS011;40040;42.706;23.372;2023-04-15T06:45:44;4.43;;;3.90;;
6937;SDS011;40040;42.706;23.372;2023-04-15T06:48:11;3.65;;;3.33;;
6937;SDS011;40040;42.706;23.372;2023-04-15T06:50:38;5.00;;;3.13;;
6937;SDS011;40040;42.706;23.372;2023-04-15T06:53:06;4.13;;;2.90;;
6937;SDS011;40040;42.706;23.372;2023-04-15T06:55:33;3.00;;;2.78;;
6937;SDS011;40040;42.706;23.372;2023-04-15T06:58:00;3.72;;;2.70;;
6937;SDS011;40040;42.706;23.372;2023-04-15T07:00:27;4.53;;;2.80;;
6937;SDS011;40040;42.706;23.372;2023-04-15T07:02:54;4.65;;;3.40;;
6937;SDS011;40040;42.706;23.372;2023-04-15T07:05:22;3.30;;;3.00;;
6937;SDS011;40040;42.706;23.372;2023-04-15T07:07:49;5.65;;;4.35;;
6937;SDS011;40040;42.706;23.372;2023-04-15T07:10:18;4.78;;;4.38;;
6937;SDS011;40040;42.706;23.372;2023-04-15T07:12:45;4.88;;;3.28;;
6937;SDS011;40040;42.706;23.372;2023-04-15T07:15:13;3.80;;;3.50;;
6937;SDS011;40040;42.706;23.372;2023-04-15T07:17:40;6.15;;;5.50;;
6937;SDS011;40040;42.706;23.372;2023-04-15T07:20:08;4.22;;;3.53;;
6937;SDS011;40040;42.706;23.372;2023-04-15T07:22:35;3.42;;;3.13;;
6937;SDS011;40040;42.706;23.372;2023-04-15T07:25:02;4.15;;;3.35;;
6937;SDS011;40040;42.706;23.372;2023-04-15T07:27:31;5.82;;;5.22;;
6937;SDS011;40040;42.706;23.372;2023-04-15T07:29:57;6.55;;;5.90;;
6937;SDS011;40040;42.706;23.372;2023-04-15T07:32:24;9.55;;;8.60;;
6937;SDS011;40040;42.706;23.372;2023-04-15T07:34:51;5.90;;;3.92;;
6937;SDS011;40040;42.706;23.372;2023-04-15T07:37:18;5.57;;;3.78;;
6937;SDS011;40040;42.706;23.372;2023-04-15T07:39:45;5.88;;;5.03;;
6937;SDS011;40040;42.706;23.372;2023-04-15T07:42:12;10.27;;;8.15;;
6937;SDS011;40040;42.706;23.372;2023-04-15T07:44:40;9.50;;;6.18;;
6937;SDS011;40040;42.706;23.372;2023-04-15T07:47:07;6.13;;;4.80;;
6937;SDS011;40040;42.706;23.372;2023-04-15T07:49:34;5.53;;;4.63;;
6937;SDS011;40040;42.706;23.372;2023-04-15T07:52:01;5.70;;;4.28;;
6937;SDS011;40040;42.706;23.372;2023-04-15T07:54:28;5.80;;;4.35;;
6937;SDS011;40040;42.706;23.372;2023-04-15T07:56:55;42.40;;;27.25;;
6937;SDS011;40040;42.706;23.372;2023-04-15T07:59:23;7.13;;;5.35;;
6937;SDS011;40040;42.706;23.372;2023-04-15T08:01:53;36.17;;;20.63;;
6937;SDS011;40040;42.706;23.372;2023-04-15T08:04:19;5.45;;;4.43;;
6937;SDS011;40040;42.706;23.372;2023-04-15T08:06:46;6.10;;;4.55;;
6937;SDS011;40040;42.706;23.372;2023-04-15T08:09:14;8.75;;;5.25;;
6937;SDS011;40040;42.706;23.372;2023-04-15T08:11:41;7.15;;;4.43;;
6937;SDS011;40040;42.706;23.372;2023-04-15T08:14:08;9.05;;;6.00;;
6937;SDS011;40040;42.706;23.372;2023-04-15T08:16:34;4.90;;;4.50;;
6937;SDS011;40040;42.706;23.372;2023-04-15T08:19:03;7.30;;;4.57;;
6937;SDS011;40040;42.706;23.372;2023-04-15T08:21:29;4.40;;;4.00;;
6937;SDS011;40040;42.706;23.372;2023-04-15T08:23:56;4.97;;;4.25;;
6937;SDS011;40040;42.706;23.372;2023-04-15T08:26:24;5.65;;;4.00;;
6937;SDS011;40040;42.706;23.372;2023-04-15T08:28:51;4.50;;;4.10;;
6937;SDS011;40040;42.706;23.372;2023-04-15T08:31:17;10.00;;;7.65;;
6937;SDS011;40040;42.706;23.372;2023-04-15T08:33:45;4.22;;;3.60;;
6937;SDS011;40040;42.706;23.372;2023-04-15T08:36:13;4.03;;;3.67;;
6937;SDS011;40040;42.706;23.372;2023-04-15T08:38:40;5.03;;;3.60;;
6937;SDS011;40040;42.706;23.372;2023-04-15T08:41:09;4.00;;;3.70;;
6937;SDS011;40040;42.706;23.372;2023-04-15T08:43:44;5.28;;;3.15;;
6937;SDS011;40040;42.706;23.372;2023-04-15T08:46:19;5.82;;;5.25;;
6937;SDS011;40040;42.706;23.372;2023-04-15T08:48:47;4.85;;;3.05;;
6937;SDS011;40040;42.706;23.372;2023-04-15T08:51:16;3.90;;;3.25;;
6937;SDS011;40040;42.706;23.372;2023-04-15T08:53:43;2.65;;;2.45;;
6937;SDS011;40040;42.706;23.372;2023-04-15T08:56:11;2.78;;;2.55;;
6937;SDS011;40040;42.706;23.372;2023-04-15T08:58:40;2.85;;;2.55;;
6937;SDS011;40040;42.706;23.372;2023-04-15T09:01:06;2.70;;;2.50;;
6937;SDS011;40040;42.706;23.372;2023-04-15T09:03:33;3.15;;;2.90;;
6937;SDS011;40040;42.706;23.372;2023-04-15T09:06:00;3.78;;;2.92;;
6937;SDS011;40040;42.706;23.372;2023-04-15T09:08:31;3.42;;;3.25;;
6937;SDS011;40040;42.706;23.372;2023-04-15T09:10:59;2.40;;;2.30;;
6937;SDS011;40040;42.706;23.372;2023-04-15T09:13:26;2.47;;;2.33;;
6937;SDS011;40040;42.706;23.372;2023-04-15T09:15:53;2.83;;;2.15;;
6937;SDS011;40040;42.706;23.372;2023-04-15T09:18:27;2.92;;;2.40;;
6937;SDS011;40040;42.706;23.372;2023-04-15T09:20:55;4.20;;;3.90;;
6937;SDS011;40040;42.706;23.372;2023-04-15T09:23:22;2.92;;;2.65;;
6937;SDS011;40040;42.706;23.372;2023-04-15T09:25:50;2.40;;;1.90;;
6937;SDS011;40040;42.706;23.372;2023-04-15T09:28:22;2.55;;;2.10;;
6937;SDS011;40040;42.706;23.372;2023-04-15T09:30:51;1.90;;;1.80;;
6937;SDS011;40040;42.706;23.372;2023-04-15T09:33:21;2.13;;;2.03;;
6937;SDS011;40040;42.706;23.372;2023-04-15T09:35:55;2.00;;;1.80;;
6937;SDS011;40040;42.706;23.372;2023-04-15T09:38:24;2.08;;;1.90;;
6937;SDS011;40040;42.706;23.372;2023-04-15T09:40:52;1.83;;;1.73;;
6937;SDS011;40040;42.706;23.372;2023-04-15T09:43:19;2.10;;;1.92;;
6937;SDS011;40040;42.706;23.372;2023-04-15T09:45:46;1.77;;;1.67;;
6937;SDS011;40040;42.706;23.372;2023-04-15T09:48:16;1.80;;;1.70;;
6937;SDS011;40040;42.706;23.372;2023-04-15T09:50:45;2.00;;;1.77;;
6937;SDS011;40040;42.706;23.372;2023-04-15T09:53:15;1.98;;;1.88;;
6937;SDS011;40040;42.706;23.372;2023-04-15T09:55:44;1.60;;;1.50;;
6937;SDS011;40040;42.706;23.372;2023-04-15T09:58:17;2.10;;;2.00;;
6937;SDS011;40040;42.706;23.372;2023-04-15T10:00:45;1.95;;;1.85;;
6937;SDS011;40040;42.706;23.372;2023-04-15T10:03:14;1.90;;;1.80;;
6937;SDS011;40040;42.706;23.372;2023-04-15T10:05:45;2.08;;;1.83;;
6937;SDS011;40040;42.706;23.372;2023-04-15T10:08:14;1.60;;;1.60;;
6937;SDS011;40040;42.706;23.372;2023-04-15T10:10:43;2.33;;;1.83;;
6937;SDS011;40040;42.706;23.372;2023-04-15T10:13:10;2.13;;;1.92;;
6937;SDS011;40040;42.706;23.372;2023-04-15T10:15:42;3.38;;;2.20;;
6937;SDS011;40040;42.706;23.372;2023-04-15T10:18:12;1.92;;;1.80;;
6937;SDS011;40040;42.706;23.372;2023-04-15T10:20:41;1.67;;;1.58;;
6937;SDS011;40040;42.706;23.372;2023-04-15T10:23:10;2.50;;;2.40;;
6937;SDS011;40040;42.706;23.372;2023-04-15T10:25:37;2.33;;;1.50;;
6937;SDS011;40040;42.706;23.372;2023-04-15T10:28:05;2.13;;;1.50;;
6937;SDS011;40040;42.706;23.372;2023-04-15T10:30:32;1.52;;;1.48;;
6937;SDS011;40040;42.706;23.372;2023-04-15T10:33:01;1.35;;;1.25;;
6937;SDS011;40040;42.706;23.372;2023-04-15T10:35:29;2.53;;;2.33;;
6937;SDS011;40040;42.706;23.372;2023-04-15T10:37:58;2.28;;;1.65;;
6937;SDS011;40040;42.706;23.372;2023-04-15T10:40:26;2.35;;;1.90;;
6937;SDS011;40040;42.706;23.372;2023-04-15T10:42:56;4.97;;;3.35;;
6937;SDS011;40040;42.706;23.372;2023-04-15T10:45:24;6.82;;;4.70;;
6937;SDS011;40040;42.706;23.372;2023-04-15T10:47:53;4.57;;;3.95;;
6937;SDS011;40040;42.706;23.372;2023-04-15T10:50:22;2.35;;;1.88;;
6937;SDS011;40040;42.706;23.372;2023-04-15T10:52:52;1.95;;;1.83;;
6937;SDS011;40040;42.706;23.372;2023-04-15T10:55:20;1.70;;;1.60;;
6937;SDS011;40040;42.706;23.372;2023-04-15T10:57:50;1.85;;;1.42;;
6937;SDS011;40040;42.706;23.372;2023-04-15T11:00:20;1.25;;;1.25;;
6937;SDS011;40040;42.706;23.372;2023-04-15T11:02:52;1.60;;;1.50;;
6937;SDS011;40040;42.706;23.372;2023-04-15T11:05:20;1.40;;;1.40;;
6937;SDS011;40040;42.706;23.372;2023-04-15T11:08:09;1.73;;;1.20;;
6937;SDS011;40040;42.706;23.372;2023-04-15T11:13:25;1.90;;;1.70;;
6937;SDS011;40040;42.706;23.372;2023-04-15T11:15:57;1.30;;;1.30;;
6937;SDS011;40040;42.706;23.372;2023-04-15T11:18:26;1.50;;;1.40;;
6937;SDS011;40040;42.706;23.372;2023-04-15T11:20:57;1.05;;;1.05;;
6937;SDS011;40040;42.706;23.372;2023-04-15T11:23:29;1.35;;;1.33;;
6937;SDS011;40040;42.706;23.372;2023-04-15T11:26:00;2.20;;;2.05;;
6937;SDS011;40040;42.706;23.372;2023-04-15T11:28:30;1.80;;;1.70;;
6937;SDS011;40040;42.706;23.372;2023-04-15T11:30:59;1.58;;;1.48;;
6937;SDS011;40040;42.706;23.372;2023-04-15T11:33:32;1.60;;;1.58;;
6937;SDS011;40040;42.706;23.372;2023-04-15T11:36:01;1.40;;;1.30;;
6937;SDS011;40040;42.706;23.372;2023-04-15T11:38:28;1.58;;;1.48;;
6937;SDS011;40040;42.706;23.372;2023-04-15T11:40:55;1.58;;;1.42;;
6937;SDS011;40040;42.706;23.372;2023-04-15T11:43:22;1.40;;;1.30;;
6937;SDS011;40040;42.706;23.372;2023-04-15T11:45:50;3.63;;;1.60;;
6937;SDS011;40040;42.706;23.372;2023-04-15T11:48:19;1.48;;;1.38;;
6937;SDS011;40040;42.706;23.372;2023-04-15T11:50:51;1.60;;;1.50;;
6937;SDS011;40040;42.706;23.372;2023-04-15T11:53:21;1.50;;;1.40;;
6937;SDS011;40040;42.706;23.372;2023-04-15T11:55:49;2.45;;;1.30;;
6937;SDS011;40040;42.706;23.372;2023-04-15T11:58:18;1.30;;;1.30;;
6937;SDS011;40040;42.706;23.372;2023-04-15T12:00:48;1.10;;;1.10;;
6937;SDS011;40040;42.706;23.372;2023-04-15T12:03:20;2.10;;;1.35;;
6937;SDS011;40040;42.706;23.372;2023-04-15T12:06:03;1.20;;;1.20;;
6937;SDS011;40040;42.706;23.372;2023-04-15T12:11:38;1.27;;;1.27;;
6937;SDS011;40040;42.706;23.372;2023-04-15T12:14:19;1.30;;;1.20;;
6937;SDS011;40040;42.706;23.372;2023-04-15T12:16:49;3.67;;;2.97;;
6937;SDS011;40040;42.706;23.372;2023-04-15T12:19:21;1.98;;;1.70;;
6937;SDS011;40040;42.706;23.372;2023-04-15T12:21:50;1.95;;;1.52;;
6937;SDS011;40040;42.706;23.372;2023-04-15T12:24:20;1.50;;;1.40;;
6937;SDS011;40040;42.706;23.372;2023-04-15T12:26:48;1.85;;;1.42;;
6937;SDS011;40040;42.706;23.372;2023-04-15T12:29:17;1.52;;;1.42;;
6937;SDS011;40040;42.706;23.372;2023-04-15T12:31:48;1.20;;;1.15;;
6937;SDS011;40040;42.706;23.372;2023-04-15T12:34:16;1.73;;;1.25;;
6937;SDS011;40040;42.706;23.372;2023-04-15T12:36:44;1.63;;;1.20;;
6937;SDS011;40040;42.706;23.372;2023-04-15T12:39:11;2.53;;;1.88;;
6937;SDS011;40040;42.706;23.372;2023-04-15T12:41:40;2.42;;;1.92;;
6937;SDS011;40040;42.706;23.372;2023-04-15T12:44:06;2.20;;;2.00;;
6937;SDS011;40040;42.706;23.372;2023-04-15T12:46:33;0.90;;;0.90;;
6937;SDS011;40040;42.706;23.372;2023-04-15T12:49:00;1.27;;;1.17;;
6937;SDS011;40040;42.706;23.372;2023-04-15T12:51:27;1.55;;;1.45;;
6937;SDS011;40040;42.706;23.372;2023-04-15T12:53:56;2.05;;;1.95;;
6937;SDS011;40040;42.706;23.372;2023-04-15T12:56:22;1.00;;;1.00;;
6937;SDS011;40040;42.706;23.372;2023-04-15T12:58:51;1.15;;;1.00;;
6937;SDS011;40040;42.706;23.372;2023-04-15T13:01:17;0.80;;;0.80;;
6937;SDS011;40040;42.706;23.372;2023-04-15T13:03:44;1.00;;;1.00;;
6937;SDS011;40040;42.706;23.372;2023-04-15T13:06:12;0.98;;;0.98;;
6937;SDS011;40040;42.706;23.372;2023-04-15T13:08:39;0.95;;;0.77;;
6937;SDS011;40040;42.706;23.372;2023-04-15T13:11:06;2.08;;;0.88;;
6937;SDS011;40040;42.706;23.372;2023-04-15T13:13:33;1.05;;;1.05;;
6937;SDS011;40040;42.706;23.372;2023-04-15T13:16:01;2.65;;;1.88;;
6937;SDS011;40040;42.706;23.372;2023-04-15T13:18:28;1.25;;;1.13;;
6937;SDS011;40040;42.706;23.372;2023-04-15T13:20:55;3.53;;;3.22;;
6937;SDS011;40040;42.706;23.372;2023-04-15T13:23:22;1.40;;;1.30;;
6937;SDS011;40040;42.706;23.372;2023-04-15T13:25:49;4.10;;;2.40;;
6937;SDS011;40040;42.706;23.372;2023-04-15T13:28:16;0.70;;;0.70;;
6937;SDS011;40040;42.706;23.372;2023-04-15T13:30:43;2.45;;;0.70;;
6937;SDS011;40040;42.706;23.372;2023-04-15T13:33:11;0.90;;;0.90;;
6937;SDS011;40040;42.706;23.372;2023-04-15T13:35:38;0.75;;;0.75;;
6937;SDS011;40040;42.706;23.372;2023-04-15T13:38:05;1.38;;;1.10;;
6937;SDS011;40040;42.706;23.372;2023-04-15T13:40:32;1.55;;;1.50;;
6937;SDS011;40040;42.706;23.372;2023-04-15T13:42:59;0.85;;;0.85;;
6937;SDS011;40040;42.706;23.372;2023-04-15T13:45:26;1.00;;;1.00;;
6937;SDS011;40040;42.706;23.372;2023-04-15T13:47:53;0.68;;;0.68;;
6937;SDS011;40040;42.706;23.372;2023-04-15T13:50:22;0.60;;;0.60;;
6937;SDS011;40040;42.706;23.372;2023-04-15T13:52:49;0.82;;;0.82;;
6937;SDS011;40040;42.706;23.372;2023-04-15T13:55:17;3.35;;;1.05;;
6937;SDS011;40040;42.706;23.372;2023-04-15T13:57:44;1.02;;;1.00;;
6937;SDS011;40040;42.706;23.372;2023-04-15T14:00:11;0.93;;;0.90;;
6937;SDS011;40040;42.706;23.372;2023-04-15T14:02:39;0.73;;;0.73;;
6937;SDS011;40040;42.706;23.372;2023-04-15T14:05:06;1.65;;;0.85;;
6937;SDS011;40040;42.706;23.372;2023-04-15T14:07:35;0.80;;;0.80;;
6937;SDS011;40040;42.706;23.372;2023-04-15T14:10:02;1.00;;;1.00;;
6937;SDS011;40040;42.706;23.372;2023-04-15T14:12:29;5.75;;;2.03;;
6937;SDS011;40040;42.706;23.372;2023-04-15T14:14:56;3.15;;;2.85;;
6937;SDS011;40040;42.706;23.372;2023-04-15T14:17:22;1.25;;;0.90;;
6937;SDS011;40040;42.706;23.372;2023-04-15T14:19:49;4.85;;;4.40;;
6937;SDS011;40040;42.706;23.372;2023-04-15T14:22:16;0.90;;;0.90;;
6937;SDS011;40040;42.706;23.372;2023-04-15T14:24:45;2.47;;;2.38;;
6937;SDS011;40040;42.706;23.372;2023-04-15T14:27:13;1.48;;;1.15;;
6937;SDS011;40040;42.706;23.372;2023-04-15T14:29:40;1.25;;;1.23;;
6937;SDS011;40040;42.706;23.372;2023-04-15T14:32:07;1.98;;;1.23;;
6937;SDS011;40040;42.706;23.372;2023-04-15T14:34:34;3.63;;;1.90;;
6937;SDS011;40040;42.706;23.372;2023-04-15T14:37:01;1.33;;;1.30;;
6937;SDS011;40040;42.706;23.372;2023-04-15T14:39:29;1.58;;;1.10;;
6937;SDS011;40040;42.706;23.372;2023-04-15T14:41:57;6.22;;;1.23;;
6937;SDS011;40040;42.706;23.372;2023-04-15T14:44:24;0.95;;;0.90;;
6937;SDS011;40040;42.706;23.372;2023-04-15T14:46:51;3.28;;;1.35;;
6937;SDS011;40040;42.706;23.372;2023-04-15T14:49:18;2.65;;;1.10;;
6937;SDS011;40040;42.706;23.372;2023-04-15T14:51:45;1.80;;;1.00;;
6937;SDS011;40040;42.706;23.372;2023-04-15T14:54:12;1.25;;;1.20;;